sensor_id;sensor_type;location;lat;lon;timestamp;pressure;altitude;pressure_sealevel;temperature;humidity
35551;BME280;21655;46.056;13.616;2023-03-26T00:01:32;100135.31;;;8.59;100.00
35551;BME280;21655;46.056;13.616;2023-03-26T00:04:00;100127.38;;;8.64;100.00
35551;BME280;21655;46.056;13.616;2023-03-26T00:06:27;100129.63;;;8.61;100.00
35551;BME280;21655;46.056;13.616;2023-03-26T00:08:53;100130.31;;;8.63;100.00
35551;BME280;21655;46.056;13.616;2023-03-26T00:11:20;100129.81;;;8.67;100.00
35551;BME280;21655;46.056;13.616;2023-03-26T00:13:46;100124.09;;;8.69;100.00
35551;BME280;21655;46.056;13.616;2023-03-26T00:16:13;100108.03;;;8.72;100.00
35551;BME280;21655;46.056;13.616;2023-03-26T00:18:41;100104.91;;;8.75;100.00
35551;BME280;21655;46.056;13.616;2023-03-26T00:21:08;100108.03;;;8.72;100.00
35551;BME280;21655;46.056;13.616;2023-03-26T00:23:35;100118.75;;;8.67;100.00
35551;BME280;21655;46.056;13.616;2023-03-26T00:26:01;100118.91;;;8.66;100.00
35551;BME280;21655;46.056;13.616;2023-03-26T00:28:27;100122.88;;;8.71;100.00
35551;BME280;21655;46.056;13.616;2023-03-26T00:31:00;100116.31;;;8.64;100.00
35551;BME280;21655;46.056;13.616;2023-03-26T00:33:26;100118.25;;;8.48;100.00
35551;BME280;21655;46.056;13.616;2023-03-26T00:35:52;100121.19;;;8.38;100.00
35551;BME280;21655;46.056;13.616;2023-03-26T00:38:18;100109.63;;;8.27;100.00
35551;BME280;21655;46.056;13.616;2023-03-26T00:40:44;100111.84;;;8.23;100.00
35551;BME280;21655;46.056;13.616;2023-03-26T00:43:12;100115.28;;;8.25;100.00
35551;BME280;21655;46.056;13.616;2023-03-26T00:45:47;100122.38;;;8.36;100.00
35551;BME280;21655;46.056;13.616;2023-03-26T00:48:13;100114.78;;;8.38;100.00
35551;BME280;21655;46.056;13.616;2023-03-26T00:50:39;100113.72;;;8.39;100.00
35551;BME280;21655;46.056;13.616;2023-03-26T00:53:05;100118.06;;;8.41;100.00
35551;BME280;21655;46.056;13.616;2023-03-26T00:55:32;100111.00;;;8.31;100.00
35551;BME280;21655;46.056;13.616;2023-03-26T00:57:58;100114.28;;;8.34;100.00
35551;BME280;21655;46.056;13.616;2023-03-26T01:00:27;100109.59;;;8.35;100.00
35551;BME280;21655;46.056;13.616;2023-03-26T01:02:53;100110.97;;;8.39;100.00
35551;BME280;21655;46.056;13.616;2023-03-26T01:07:59;100098.88;;;8.56;100.00
35551;BME280;21655;46.056;13.616;2023-03-26T01:10:24;100096.47;;;8.61;100.00
35551;BME280;21655;46.056;13.616;2023-03-26T01:12:50;100094.06;;;8.58;100.00
35551;BME280;21655;46.056;13.616;2023-03-26T01:15:15;100092.84;;;8.60;100.00
35551;BME280;21655;46.056;13.616;2023-03-26T01:17:41;100093.88;;;8.59;100.00
35551;BME280;21655;46.056;13.616;2023-03-26T01:20:14;100091.81;;;8.45;100.00
35551;BME280;21655;46.056;13.616;2023-03-26T01:22:45;100083.03;;;8.42;100.00
35551;BME280;21655;46.056;13.616;2023-03-26T01:25:11;100072.31;;;8.31;100.00
35551;BME280;21655;46.056;13.616;2023-03-26T01:27:43;100072.66;;;8.36;100.00
35551;BME280;21655;46.056;13.616;2023-03-26T01:38:00;100059.72;;;8.28;100.00
35551;BME280;21655;46.056;13.616;2023-03-26T01:40:35;100063.34;;;8.21;100.00
35551;BME280;21655;46.056;13.616;2023-03-26T01:45:50;100062.94;;;8.00;100.00
35551;BME280;21655;46.056;13.616;2023-03-26T01:48:16;100062.25;;;7.98;100.00
35551;BME280;21655;46.056;13.616;2023-03-26T01:50:42;100070.03;;;7.86;100.00
35551;BME280;21655;46.056;13.616;2023-03-26T01:53:08;100064.47;;;7.78;100.00
35551;BME280;21655;46.056;13.616;2023-03-26T02:01:13;100060.84;;;7.62;100.00
35551;BME280;21655;46.056;13.616;2023-03-26T02:03:41;100068.63;;;7.74;100.00
35551;BME280;21655;46.056;13.616;2023-03-26T02:08:59;100058.28;;;7.84;100.00
35551;BME280;21655;46.056;13.616;2023-03-26T02:11:27;100054.34;;;7.95;100.00
35551;BME280;21655;46.056;13.616;2023-03-26T02:13:52;100051.06;;;7.99;100.00
35551;BME280;21655;46.056;13.616;2023-03-26T02:16:18;100052.25;;;7.89;100.00
35551;BME280;21655;46.056;13.616;2023-03-26T02:18:44;100052.97;;;7.91;100.00
35551;BME280;21655;46.056;13.616;2023-03-26T02:21:14;100047.75;;;7.88;100.00
35551;BME280;21655;46.056;13.616;2023-03-26T02:23:44;100047.25;;;7.92;100.00
35551;BME280;21655;46.056;13.616;2023-03-26T02:26:10;100053.13;;;7.89;100.00
35551;BME280;21655;46.056;13.616;2023-03-26T02:28:36;100052.44;;;7.87;100.00
35551;BME280;21655;46.056;13.616;2023-03-26T02:31:02;100065.16;;;7.80;100.00
35551;BME280;21655;46.056;13.616;2023-03-26T02:33:28;100059.16;;;7.77;100.00
35551;BME280;21655;46.056;13.616;2023-03-26T02:35:53;100056.53;;;7.67;100.00
35551;BME280;21655;46.056;13.616;2023-03-26T02:38:19;100058.06;;;7.62;100.00
35551;BME280;21655;46.056;13.616;2023-03-26T02:40:44;100060.09;;;7.52;100.00
35551;BME280;21655;46.056;13.616;2023-03-26T02:43:10;100056.31;;;7.45;100.00
35551;BME280;21655;46.056;13.616;2023-03-26T02:45:35;100057.69;;;7.49;100.00
35551;BME280;21655;46.056;13.616;2023-03-26T02:48:00;100062.88;;;7.52;100.00
35551;BME280;21655;46.056;13.616;2023-03-26T02:50:26;100059.97;;;7.61;100.00
35551;BME280;21655;46.056;13.616;2023-03-26T02:52:51;100062.22;;;7.58;100.00
35551;BME280;21655;46.056;13.616;2023-03-26T02:55:17;100064.59;;;7.53;100.00
35551;BME280;21655;46.056;13.616;2023-03-26T02:57:42;100063.06;;;7.58;100.00
35551;BME280;21655;46.056;13.616;2023-03-26T03:00:08;100057.38;;;7.68;100.00
35551;BME280;21655;46.056;13.616;2023-03-26T03:02:38;100049.13;;;7.76;100.00
35551;BME280;21655;46.056;13.616;2023-03-26T03:05:03;100049.47;;;7.89;100.00
35551;BME280;21655;46.056;13.616;2023-03-26T03:07:30;100053.63;;;8.01;100.00
35551;BME280;21655;46.056;13.616;2023-03-26T03:09:55;100052.09;;;8.06;100.00
35551;BME280;21655;46.056;13.616;2023-03-26T03:12:26;100054.84;;;8.14;100.00
35551;BME280;21655;46.056;13.616;2023-03-26T03:14:51;100051.59;;;8.19;100.00
35551;BME280;21655;46.056;13.616;2023-03-26T03:17:17;100050.56;;;8.28;100.00
35551;BME280;21655;46.056;13.616;2023-03-26T03:19:44;100058.34;;;8.32;100.00
35551;BME280;21655;46.056;13.616;2023-03-26T03:22:10;100058.31;;;8.40;100.00
35551;BME280;21655;46.056;13.616;2023-03-26T03:24:35;100061.78;;;8.42;100.00
35551;BME280;21655;46.056;13.616;2023-03-26T03:27:00;100061.63;;;8.44;100.00
35551;BME280;21655;46.056;13.616;2023-03-26T03:29:26;100059.34;;;8.47;100.00
35551;BME280;21655;46.056;13.616;2023-03-26T03:31:52;100061.09;;;8.40;100.00
35551;BME280;21655;46.056;13.616;2023-03-26T03:34:17;100051.06;;;8.39;100.00
35551;BME280;21655;46.056;13.616;2023-03-26T03:36:43;100052.47;;;8.35;100.00
35551;BME280;21655;46.056;13.616;2023-03-26T03:39:13;100044.19;;;8.35;100.00
35551;BME280;21655;46.056;13.616;2023-03-26T03:41:38;100045.72;;;8.38;100.00
35551;BME280;21655;46.056;13.616;2023-03-26T03:44:03;100059.53;;;8.38;100.00
35551;BME280;21655;46.056;13.616;2023-03-26T03:46:29;100069.22;;;8.34;100.00
35551;BME280;21655;46.056;13.616;2023-03-26T03:48:54;100055.22;;;8.35;100.00
35551;BME280;21655;46.056;13.616;2023-03-26T03:51:20;100068.34;;;8.33;100.00
35551;BME280;21655;46.056;13.616;2023-03-26T03:53:45;100066.25;;;8.27;100.00
35551;BME280;21655;46.056;13.616;2023-03-26T03:56:11;100069.38;;;8.24;100.00
35551;BME280;21655;46.056;13.616;2023-03-26T03:58:38;100054.53;;;8.25;100.00
35551;BME280;21655;46.056;13.616;2023-03-26T04:01:05;100056.94;;;8.28;100.00
35551;BME280;21655;46.056;13.616;2023-03-26T04:03:30;100049.88;;;8.34;100.00
35551;BME280;21655;46.056;13.616;2023-03-26T04:06:02;100045.03;;;8.36;100.00
35551;BME280;21655;46.056;13.616;2023-03-26T04:08:31;100041.22;;;8.37;100.00
35551;BME280;21655;46.056;13.616;2023-03-26T04:10:56;100046.75;;;8.37;100.00
35551;BME280;21655;46.056;13.616;2023-03-26T04:13:22;100044.34;;;8.42;100.00
35551;BME280;21655;46.056;13.616;2023-03-26T04:15:47;100038.09;;;8.40;100.00
35551;BME280;21655;46.056;13.616;2023-03-26T04:18:13;100036.91;;;8.42;100.00
35551;BME280;21655;46.056;13.616;2023-03-26T04:20:39;100030.53;;;8.42;100.00
35551;BME280;21655;46.056;13.616;2023-03-26T04:23:10;100036.41;;;8.47;100.00
35551;BME280;21655;46.056;13.616;2023-03-26T04:25:38;100044.31;;;8.50;100.00
35551;BME280;21655;46.056;13.616;2023-03-26T04:28:04;100040.00;;;8.47;100.00
35551;BME280;21655;46.056;13.616;2023-03-26T04:30:32;100033.63;;;8.47;100.00
35551;BME280;21655;46.056;13.616;2023-03-26T04:32:58;100037.25;;;8.47;100.00
35551;BME280;21655;46.056;13.616;2023-03-26T04:35:28;100036.56;;;8.45;100.00
35551;BME280;21655;46.056;13.616;2023-03-26T04:37:58;100019.81;;;8.47;100.00
35551;BME280;21655;46.056;13.616;2023-03-26T04:40:23;100026.19;;;8.47;100.00
35551;BME280;21655;46.056;13.616;2023-03-26T04:42:49;100014.44;;;8.45;100.00
35551;BME280;21655;46.056;13.616;2023-03-26T04:45:17;100010.16;;;8.43;100.00
35551;BME280;21655;46.056;13.616;2023-03-26T04:47:46;100018.25;;;8.44;100.00
35551;BME280;21655;46.056;13.616;2023-03-26T04:50:12;100017.06;;;8.39;100.00
35551;BME280;21655;46.056;13.616;2023-03-26T04:52:38;100016.72;;;8.34;100.00
35551;BME280;21655;46.056;13.616;2023-03-26T04:55:04;100013.28;;;8.32;100.00
35551;BME280;21655;46.056;13.616;2023-03-26T04:57:35;100002.59;;;8.29;100.00
35551;BME280;21655;46.056;13.616;2023-03-26T05:00:05;100009.31;;;8.26;100.00
35551;BME280;21655;46.056;13.616;2023-03-26T05:02:40;100003.78;;;8.26;100.00
35551;BME280;21655;46.056;13.616;2023-03-26T05:05:06;100019.50;;;8.26;100.00
35551;BME280;21655;46.056;13.616;2023-03-26T05:07:32;100016.41;;;8.29;100.00
35551;BME280;21655;46.056;13.616;2023-03-26T05:09:57;100014.50;;;8.21;100.00
35551;BME280;21655;46.056;13.616;2023-03-26T05:12:23;100004.50;;;8.20;100.00
35551;BME280;21655;46.056;13.616;2023-03-26T05:14:48;100009.34;;;8.18;100.00
35551;BME280;21655;46.056;13.616;2023-03-26T05:17:13;100000.16;;;8.18;100.00
35551;BME280;21655;46.056;13.616;2023-03-26T05:19:42;100009.34;;;8.18;100.00
35551;BME280;21655;46.056;13.616;2023-03-26T05:22:08;100006.56;;;8.18;100.00
35551;BME280;21655;46.056;13.616;2023-03-26T05:24:33;99999.50;;;8.24;100.00
35551;BME280;21655;46.056;13.616;2023-03-26T05:26:58;100012.59;;;8.22;100.00
35551;BME280;21655;46.056;13.616;2023-03-26T05:29:23;100003.09;;;8.24;100.00
35551;BME280;21655;46.056;13.616;2023-03-26T05:31:49;100008.47;;;8.26;100.00
35551;BME280;21655;46.056;13.616;2023-03-26T05:34:15;100001.34;;;8.39;100.00
35551;BME280;21655;46.056;13.616;2023-03-26T05:36:40;100004.97;;;8.40;100.00
35551;BME280;21655;46.056;13.616;2023-03-26T05:39:06;99994.06;;;8.46;100.00
35551;BME280;21655;46.056;13.616;2023-03-26T05:41:32;100003.25;;;8.47;100.00
35551;BME280;21655;46.056;13.616;2023-03-26T05:43:58;99999.06;;;8.59;100.00
35551;BME280;21655;46.056;13.616;2023-03-26T05:46:23;99991.13;;;8.56;100.00
35551;BME280;21655;46.056;13.616;2023-03-26T05:48:48;99993.03;;;8.55;100.00
35551;BME280;21655;46.056;13.616;2023-03-26T05:51:14;99983.19;;;8.61;100.00
35551;BME280;21655;46.056;13.616;2023-03-26T05:53:42;99986.94;;;8.68;100.00
35551;BME280;21655;46.056;13.616;2023-03-26T05:56:07;99977.97;;;8.74;100.00
35551;BME280;21655;46.056;13.616;2023-03-26T05:58:33;99977.22;;;8.80;100.00
35551;BME280;21655;46.056;13.616;2023-03-26T06:01:00;99977.91;;;8.82;100.00
35551;BME280;21655;46.056;13.616;2023-03-26T06:03:29;99982.75;;;8.80;100.00
35551;BME280;21655;46.056;13.616;2023-03-26T06:05:55;99996.38;;;8.81;100.00
35551;BME280;21655;46.056;13.616;2023-03-26T06:08:20;99989.81;;;8.90;100.00
35551;BME280;21655;46.056;13.616;2023-03-26T06:10:46;99990.31;;;8.94;100.00
35551;BME280;21655;46.056;13.616;2023-03-26T06:13:12;99995.13;;;9.00;100.00
35551;BME280;21655;46.056;13.616;2023-03-26T06:15:40;99987.19;;;8.97;100.00
35551;BME280;21655;46.056;13.616;2023-03-26T06:18:05;99990.13;;;8.95;100.00
35551;BME280;21655;46.056;13.616;2023-03-26T06:20:31;99988.75;;;8.91;100.00
35551;BME280;21655;46.056;13.616;2023-03-26T06:22:56;99990.47;;;8.92;100.00
35551;BME280;21655;46.056;13.616;2023-03-26T06:25:21;100004.78;;;9.04;100.00
35551;BME280;21655;46.056;13.616;2023-03-26T06:27:46;100002.00;;;9.04;100.00
35551;BME280;21655;46.056;13.616;2023-03-26T06:30:12;100004.38;;;9.15;100.00
35551;BME280;21655;46.056;13.616;2023-03-26T06:32:37;100009.91;;;9.15;100.00
35551;BME280;21655;46.056;13.616;2023-03-26T06:35:03;100009.91;;;9.23;100.00
35551;BME280;21655;46.056;13.616;2023-03-26T06:37:28;100007.25;;;9.29;100.00
35551;BME280;21655;46.056;13.616;2023-03-26T06:39:53;100007.81;;;9.25;100.00
35551;BME280;21655;46.056;13.616;2023-03-26T06:42:19;100002.88;;;9.34;100.00
35551;BME280;21655;46.056;13.616;2023-03-26T06:44:44;100002.59;;;9.29;100.00
35551;BME280;21655;46.056;13.616;2023-03-26T06:47:10;99997.91;;;9.30;100.00
35551;BME280;21655;46.056;13.616;2023-03-26T06:49:35;99986.28;;;9.34;100.00
35551;BME280;21655;46.056;13.616;2023-03-26T06:52:02;99981.81;;;9.33;100.00
35551;BME280;21655;46.056;13.616;2023-03-26T06:54:27;99974.31;;;9.42;100.00
35551;BME280;21655;46.056;13.616;2023-03-26T06:56:53;99972.72;;;9.47;100.00
35551;BME280;21655;46.056;13.616;2023-03-26T06:59:18;99983.25;;;9.52;100.00
35551;BME280;21655;46.056;13.616;2023-03-26T07:01:44;99987.50;;;9.62;100.00
35551;BME280;21655;46.056;13.616;2023-03-26T07:04:09;99973.16;;;9.81;100.00
35551;BME280;21655;46.056;13.616;2023-03-26T07:06:35;99960.38;;;9.80;100.00
35551;BME280;21655;46.056;13.616;2023-03-26T07:09:01;99962.97;;;10.04;100.00
35551;BME280;21655;46.056;13.616;2023-03-26T07:11:26;99962.34;;;10.17;100.00
35551;BME280;21655;46.056;13.616;2023-03-26T07:13:52;99958.91;;;10.29;100.00
35551;BME280;21655;46.056;13.616;2023-03-26T07:16:20;99944.69;;;10.32;100.00
35551;BME280;21655;46.056;13.616;2023-03-26T07:18:46;99958.66;;;10.39;100.00
35551;BME280;21655;46.056;13.616;2023-03-26T07:21:11;99942.19;;;10.37;100.00
35551;BME280;21655;46.056;13.616;2023-03-26T07:23:37;99942.63;;;10.49;100.00
35551;BME280;21655;46.056;13.616;2023-03-26T07:26:18;99936.50;;;10.68;100.00
35551;BME280;21655;46.056;13.616;2023-03-26T07:28:49;99935.03;;;11.01;100.00
35551;BME280;21655;46.056;13.616;2023-03-26T07:34:09;99934.28;;;11.42;100.00
35551;BME280;21655;46.056;13.616;2023-03-26T07:36:47;99931.59;;;11.34;100.00
35551;BME280;21655;46.056;13.616;2023-03-26T07:46:53;99915.50;;;12.62;100.00
35551;BME280;21655;46.056;13.616;2023-03-26T07:49:18;99906.81;;;12.78;100.00
35551;BME280;21655;46.056;13.616;2023-03-26T07:51:44;99912.00;;;13.21;100.00
35551;BME280;21655;46.056;13.616;2023-03-26T07:54:10;99907.88;;;13.11;100.00
35551;BME280;21655;46.056;13.616;2023-03-26T07:56:36;99903.78;;;13.60;100.00
35551;BME280;21655;46.056;13.616;2023-03-26T08:07:00;99887.63;;;16.17;100.00
35551;BME280;21655;46.056;13.616;2023-03-26T08:17:12;99869.09;;;19.16;81.65
35551;BME280;21655;46.056;13.616;2023-03-26T08:30:20;99857.53;;;21.71;63.32
35551;BME280;21655;46.056;13.616;2023-03-26T08:32:59;99850.28;;;21.59;60.53
35551;BME280;21655;46.056;13.616;2023-03-26T08:35:26;99848.50;;;21.10;62.73
35551;BME280;21655;46.056;13.616;2023-03-26T08:37:52;99848.31;;;22.07;61.10
35551;BME280;21655;46.056;13.616;2023-03-26T08:40:32;99837.88;;;21.60;62.98
35551;BME280;21655;46.056;13.616;2023-03-26T08:46:00;99842.94;;;20.61;63.19
35551;BME280;21655;46.056;13.616;2023-03-26T08:58:59;99795.69;;;23.57;54.08
35551;BME280;21655;46.056;13.616;2023-03-26T09:04:17;99783.75;;;21.89;56.79
35551;BME280;21655;46.056;13.616;2023-03-26T09:22:28;99718.59;;;19.70;72.05
35551;BME280;21655;46.056;13.616;2023-03-26T09:32:45;99713.34;;;20.61;67.04
35551;BME280;21655;46.056;13.616;2023-03-26T09:37:49;99701.88;;;19.96;69.53
35551;BME280;21655;46.056;13.616;2023-03-26T09:40:23;99691.78;;;19.34;72.03
35551;BME280;21655;46.056;13.616;2023-03-26T10:13:20;99665.69;;;18.95;85.52
35551;BME280;21655;46.056;13.616;2023-03-26T10:16:14;99663.25;;;18.98;89.63
35551;BME280;21655;46.056;13.616;2023-03-26T10:21:27;99669.16;;;18.85;84.26
35551;BME280;21655;46.056;13.616;2023-03-26T10:26:35;99656.47;;;20.04;77.94
35551;BME280;21655;46.056;13.616;2023-03-26T10:29:18;99658.41;;;20.20;75.89
35551;BME280;21655;46.056;13.616;2023-03-26T10:44:38;99622.31;;;20.01;71.76
35551;BME280;21655;46.056;13.616;2023-03-26T10:52:17;99622.16;;;19.25;80.51
35551;BME280;21655;46.056;13.616;2023-03-26T10:59:41;99622.72;;;19.38;82.00
35551;BME280;21655;46.056;13.616;2023-03-26T11:09:31;99605.88;;;21.00;70.85
35551;BME280;21655;46.056;13.616;2023-03-26T11:17:28;99588.69;;;20.97;72.44
35551;BME280;21655;46.056;13.616;2023-03-26T11:25:34;99580.13;;;19.02;89.25
35551;BME280;21655;46.056;13.616;2023-03-26T11:33:12;99575.41;;;19.35;94.13
35551;BME280;21655;46.056;13.616;2023-03-26T11:35:41;99562.09;;;18.98;100.00
35551;BME280;21655;46.056;13.616;2023-03-26T11:40:40;99558.44;;;18.70;100.00
35551;BME280;21655;46.056;13.616;2023-03-26T11:43:08;99551.53;;;18.33;100.00
35551;BME280;21655;46.056;13.616;2023-03-26T11:45:36;99552.03;;;18.18;100.00
35551;BME280;21655;46.056;13.616;2023-03-26T11:48:11;99548.56;;;17.88;100.00
35551;BME280;21655;46.056;13.616;2023-03-26T11:50:43;99555.81;;;17.38;100.00
35551;BME280;21655;46.056;13.616;2023-03-26T11:53:12;99566.31;;;17.54;100.00
35551;BME280;21655;46.056;13.616;2023-03-26T11:58:34;99562.38;;;17.78;100.00
35551;BME280;21655;46.056;13.616;2023-03-26T12:01:03;99547.28;;;18.30;100.00
35551;BME280;21655;46.056;13.616;2023-03-26T12:03:36;99542.81;;;21.06;100.00
35551;BME280;21655;46.056;13.616;2023-03-26T12:06:02;99540.06;;;22.35;86.06
35551;BME280;21655;46.056;13.616;2023-03-26T12:08:38;99525.81;;;22.72;75.05
35551;BME280;21655;46.056;13.616;2023-03-26T12:11:08;99516.81;;;21.30;82.98
35551;BME280;21655;46.056;13.616;2023-03-26T12:16:04;99508.38;;;18.50;100.00
35551;BME280;21655;46.056;13.616;2023-03-26T12:18:30;99497.06;;;18.06;100.00
35551;BME280;21655;46.056;13.616;2023-03-26T12:21:10;99506.97;;;17.97;100.00
35551;BME280;21655;46.056;13.616;2023-03-26T12:26:15;99482.69;;;18.58;100.00
35551;BME280;21655;46.056;13.616;2023-03-26T12:28:45;99483.63;;;18.64;100.00
35551;BME280;21655;46.056;13.616;2023-03-26T12:31:11;99486.91;;;19.59;100.00
35551;BME280;21655;46.056;13.616;2023-03-26T12:33:42;99464.16;;;18.90;100.00
35551;BME280;21655;46.056;13.616;2023-03-26T12:38:43;99461.34;;;19.06;100.00
35551;BME280;21655;46.056;13.616;2023-03-26T12:41:17;99439.59;;;19.35;100.00
35551;BME280;21655;46.056;13.616;2023-03-26T12:46:33;99429.00;;;18.71;100.00
35551;BME280;21655;46.056;13.616;2023-03-26T12:48:57;99440.72;;;18.35;100.00
35551;BME280;21655;46.056;13.616;2023-03-26T12:56:56;99445.06;;;17.75;100.00
35551;BME280;21655;46.056;13.616;2023-03-26T13:02:04;99441.28;;;17.42;100.00
35551;BME280;21655;46.056;13.616;2023-03-26T13:04:42;99446.63;;;17.43;100.00
35551;BME280;21655;46.056;13.616;2023-03-26T13:07:15;99442.84;;;17.26;100.00
35551;BME280;21655;46.056;13.616;2023-03-26T13:15:19;99442.13;;;16.74;100.00
35551;BME280;21655;46.056;13.616;2023-03-26T13:20:18;99442.69;;;16.41;100.00
35551;BME280;21655;46.056;13.616;2023-03-26T13:22:50;99438.91;;;16.36;100.00
35551;BME280;21655;46.056;13.616;2023-03-26T13:35:26;99415.16;;;15.97;100.00
35551;BME280;21655;46.056;13.616;2023-03-26T13:38:04;99407.16;;;16.01;100.00
35551;BME280;21655;46.056;13.616;2023-03-26T13:45:45;99396.47;;;15.80;100.00
35551;BME280;21655;46.056;13.616;2023-03-26T13:48:16;99404.41;;;15.83;100.00
35551;BME280;21655;46.056;13.616;2023-03-26T13:50:47;99383.97;;;15.82;100.00
35551;BME280;21655;46.056;13.616;2023-03-26T13:53:20;99385.44;;;15.73;100.00
35551;BME280;21655;46.056;13.616;2023-03-26T13:55:47;99393.97;;;15.90;100.00
35551;BME280;21655;46.056;13.616;2023-03-26T13:58:34;99393.56;;;15.75;100.00
35551;BME280;21655;46.056;13.616;2023-03-26T14:01:06;99385.06;;;15.81;100.00
35551;BME280;21655;46.056;13.616;2023-03-26T14:09:21;99361.59;;;15.71;100.00
35551;BME280;21655;46.056;13.616;2023-03-26T14:20:00;99334.75;;;16.34;100.00
35551;BME280;21655;46.056;13.616;2023-03-26T14:25:27;99319.50;;;16.07;100.00
35551;BME280;21655;46.056;13.616;2023-03-26T14:30:46;99311.00;;;16.13;100.00
35551;BME280;21655;46.056;13.616;2023-03-26T14:36:11;99310.78;;;16.15;100.00
35551;BME280;21655;46.056;13.616;2023-03-26T14:38:54;99306.88;;;16.16;100.00
35551;BME280;21655;46.056;13.616;2023-03-26T14:47:01;99285.94;;;16.07;100.00
35551;BME280;21655;46.056;13.616;2023-03-26T14:49:39;99283.63;;;16.04;100.00
35551;BME280;21655;46.056;13.616;2023-03-26T14:54:44;99276.19;;;15.86;100.00
35551;BME280;21655;46.056;13.616;2023-03-26T14:59:55;99271.28;;;15.70;100.00
35551;BME280;21655;46.056;13.616;2023-03-26T15:16:22;99260.50;;;15.33;100.00
35551;BME280;21655;46.056;13.616;2023-03-26T15:39:49;99206.84;;;15.13;100.00
35551;BME280;21655;46.056;13.616;2023-03-26T15:52:37;99203.34;;;15.17;100.00
35551;BME280;21655;46.056;13.616;2023-03-26T15:55:08;99194.81;;;15.12;100.00
35551;BME280;21655;46.056;13.616;2023-03-26T15:57:55;99192.97;;;15.06;100.00
35551;BME280;21655;46.056;13.616;2023-03-26T16:00:26;99169.44;;;15.14;100.00
35551;BME280;21655;46.056;13.616;2023-03-26T16:10:56;99168.13;;;15.16;100.00
35551;BME280;21655;46.056;13.616;2023-03-26T16:18:44;99125.03;;;15.24;100.00
35551;BME280;21655;46.056;13.616;2023-03-26T16:33:48;99100.47;;;15.03;100.00
35551;BME280;21655;46.056;13.616;2023-03-26T16:38:46;99102.38;;;14.91;100.00
35551;BME280;21655;46.056;13.616;2023-03-26T16:41:19;99090.00;;;14.87;100.00
35551;BME280;21655;46.056;13.616;2023-03-26T16:54:21;99011.78;;;14.53;100.00
35551;BME280;21655;46.056;13.616;2023-03-26T16:57:22;98990.44;;;14.47;100.00
35551;BME280;21655;46.056;13.616;2023-03-26T17:02:31;98965.66;;;14.39;100.00
35551;BME280;21655;46.056;13.616;2023-03-26T17:07:34;98952.44;;;14.34;100.00
35551;BME280;21655;46.056;13.616;2023-03-26T17:12:35;98950.50;;;14.35;100.00
35551;BME280;21655;46.056;13.616;2023-03-26T17:17:56;98963.69;;;14.28;100.00
35551;BME280;21655;46.056;13.616;2023-03-26T17:32:51;99010.44;;;13.78;100.00
35551;BME280;21655;46.056;13.616;2023-03-26T17:35:32;99018.34;;;13.63;100.00
35551;BME280;21655;46.056;13.616;2023-03-26T17:37:59;99019.03;;;13.41;100.00
35551;BME280;21655;46.056;13.616;2023-03-26T17:40:25;99023.44;;;13.30;100.00
35551;BME280;21655;46.056;13.616;2023-03-26T17:43:07;99021.88;;;13.16;100.00
35551;BME280;21655;46.056;13.616;2023-03-26T17:45:34;99028.53;;;13.15;100.00
35551;BME280;21655;46.056;13.616;2023-03-26T17:48:01;99037.59;;;13.11;100.00
35551;BME280;21655;46.056;13.616;2023-03-26T17:50:30;99046.41;;;12.77;100.00
35551;BME280;21655;46.056;13.616;2023-03-26T17:55:33;99060.25;;;12.84;100.00
35551;BME280;21655;46.056;13.616;2023-03-26T17:58:00;99058.13;;;12.86;100.00
35551;BME280;21655;46.056;13.616;2023-03-26T18:00:48;99061.78;;;12.80;100.00
35551;BME280;21655;46.056;13.616;2023-03-26T18:05:40;99067.44;;;12.67;100.00
35551;BME280;21655;46.056;13.616;2023-03-26T18:18:29;99102.25;;;12.76;100.00
35551;BME280;21655;46.056;13.616;2023-03-26T18:20:56;99095.44;;;12.72;100.00
35551;BME280;21655;46.056;13.616;2023-03-26T18:23:32;99100.19;;;12.65;100.00
35551;BME280;21655;46.056;13.616;2023-03-26T18:26:09;99086.38;;;12.52;100.00
35551;BME280;21655;46.056;13.616;2023-03-26T18:28:39;99083.38;;;12.53;100.00
35551;BME280;21655;46.056;13.616;2023-03-26T18:31:06;99082.34;;;12.48;100.00
35551;BME280;21655;46.056;13.616;2023-03-26T18:33:39;99076.78;;;12.48;100.00
35551;BME280;21655;46.056;13.616;2023-03-26T18:36:07;99079.00;;;12.33;100.00
35551;BME280;21655;46.056;13.616;2023-03-26T18:38:35;99070.28;;;12.29;100.00
35551;BME280;21655;46.056;13.616;2023-03-26T18:41:00;99058.13;;;12.24;100.00
35551;BME280;21655;46.056;13.616;2023-03-26T18:43:25;99064.63;;;12.11;100.00
35551;BME280;21655;46.056;13.616;2023-03-26T18:45:51;99063.78;;;12.04;100.00
35551;BME280;21655;46.056;13.616;2023-03-26T18:48:19;99072.56;;;12.01;100.00
35551;BME280;21655;46.056;13.616;2023-03-26T18:51:06;99059.28;;;12.03;100.00
35551;BME280;21655;46.056;13.616;2023-03-26T18:53:38;99063.63;;;11.93;100.00
35551;BME280;21655;46.056;13.616;2023-03-26T18:58:50;99040.22;;;11.69;100.00
35551;BME280;21655;46.056;13.616;2023-03-26T19:01:16;99031.94;;;11.56;100.00
35551;BME280;21655;46.056;13.616;2023-03-26T19:03:42;99037.09;;;11.46;100.00
35551;BME280;21655;46.056;13.616;2023-03-26T19:06:11;99024.31;;;11.39;100.00
35551;BME280;21655;46.056;13.616;2023-03-26T19:08:38;99010.47;;;11.26;100.00
35551;BME280;21655;46.056;13.616;2023-03-26T19:11:06;99021.13;;;11.29;100.00
35551;BME280;21655;46.056;13.616;2023-03-26T19:13:33;99015.13;;;11.25;100.00
35551;BME280;21655;46.056;13.616;2023-03-26T19:15:59;99015.38;;;11.18;100.00
35551;BME280;21655;46.056;13.616;2023-03-26T19:18:26;99010.91;;;11.17;100.00